sensor_id;sensor_type;location;lat;lon;timestamp;P1;durP1;ratioP1;P2;durP2;ratioP2
34064;SDS011;20339;49.754;20.158;2024-01-06T00:00:09;13.00;;;6.60;;
34064;SDS011;20339;49.754;20.158;2024-01-06T00:03:06;12.00;;;6.60;;
34064;SDS011;20339;49.754;20.158;2024-01-06T00:05:38;12.60;;;6.70;;
34064;SDS011;20339;49.754;20.158;2024-01-06T00:08:14;9.90;;;6.30;;
34064;SDS011;20339;49.754;20.158;2024-01-06T00:10:49;11.60;;;5.70;;
34064;SDS011;20339;49.754;20.158;2024-01-06T00:13:25;11.40;;;5.70;;
34064;SDS011;20339;49.754;20.158;2024-01-06T00:16:04;11.30;;;5.90;;
34064;SDS011;20339;49.754;20.158;2024-01-06T00:18:40;10.50;;;5.70;;
34064;SDS011;20339;49.754;20.158;2024-01-06T00:21:16;10.90;;;5.90;;
34064;SDS011;20339;49.754;20.158;2024-01-06T00:23:49;10.70;;;5.80;;
34064;SDS011;20339;49.754;20.158;2024-01-06T00:26:20;12.70;;;6.70;;
34064;SDS011;20339;49.754;20.158;2024-01-06T00:28:53;18.70;;;9.40;;
34064;SDS011;20339;49.754;20.158;2024-01-06T00:31:29;13.60;;;7.20;;
34064;SDS011;20339;49.754;20.158;2024-01-06T00:34:00;15.30;;;8.00;;
34064;SDS011;20339;49.754;20.158;2024-01-06T00:36:31;15.70;;;7.50;;
34064;SDS011;20339;49.754;20.158;2024-01-06T00:39:04;18.10;;;8.90;;
34064;SDS011;20339;49.754;20.158;2024-01-06T00:41:38;14.70;;;6.80;;
34064;SDS011;20339;49.754;20.158;2024-01-06T00:44:09;16.20;;;7.70;;
34064;SDS011;20339;49.754;20.158;2024-01-06T00:46:40;13.10;;;6.80;;
34064;SDS011;20339;49.754;20.158;2024-01-06T00:49:12;13.60;;;6.30;;
34064;SDS011;20339;49.754;20.158;2024-01-06T00:51:43;12.70;;;6.30;;
34064;SDS011;20339;49.754;20.158;2024-01-06T00:54:14;11.50;;;6.30;;
34064;SDS011;20339;49.754;20.158;2024-01-06T00:56:45;9.10;;;5.30;;
34064;SDS011;20339;49.754;20.158;2024-01-06T00:59:18;10.50;;;5.30;;
34064;SDS011;20339;49.754;20.158;2024-01-06T01:01:54;9.00;;;4.70;;
34064;SDS011;20339;49.754;20.158;2024-01-06T01:04:31;10.50;;;5.20;;
34064;SDS011;20339;49.754;20.158;2024-01-06T01:07:08;11.00;;;5.90;;
34064;SDS011;20339;49.754;20.158;2024-01-06T01:09:46;12.20;;;6.90;;
34064;SDS011;20339;49.754;20.158;2024-01-06T01:12:20;11.40;;;5.90;;
34064;SDS011;20339;49.754;20.158;2024-01-06T01:14:51;15.10;;;8.10;;
34064;SDS011;20339;49.754;20.158;2024-01-06T01:17:23;10.10;;;5.60;;
34064;SDS011;20339;49.754;20.158;2024-01-06T01:19:57;10.30;;;5.50;;
34064;SDS011;20339;49.754;20.158;2024-01-06T01:22:30;9.00;;;5.20;;
34064;SDS011;20339;49.754;20.158;2024-01-06T01:25:07;12.30;;;6.00;;
34064;SDS011;20339;49.754;20.158;2024-01-06T01:27:40;9.20;;;5.30;;
34064;SDS011;20339;49.754;20.158;2024-01-06T01:30:13;11.80;;;6.20;;
34064;SDS011;20339;49.754;20.158;2024-01-06T01:32:45;13.20;;;6.90;;
34064;SDS011;20339;49.754;20.158;2024-01-06T01:35:18;11.60;;;6.30;;
34064;SDS011;20339;49.754;20.158;2024-01-06T01:37:53;12.30;;;6.30;;
34064;SDS011;20339;49.754;20.158;2024-01-06T01:40:25;10.50;;;6.20;;
34064;SDS011;20339;49.754;20.158;2024-01-06T01:43:03;8.60;;;5.10;;
34064;SDS011;20339;49.754;20.158;2024-01-06T01:45:37;11.00;;;5.50;;
34064;SDS011;20339;49.754;20.158;2024-01-06T01:48:14;11.90;;;5.20;;
34064;SDS011;20339;49.754;20.158;2024-01-06T01:50:47;9.50;;;5.30;;
34064;SDS011;20339;49.754;20.158;2024-01-06T01:53:22;10.00;;;5.40;;
34064;SDS011;20339;49.754;20.158;2024-01-06T01:55:55;9.50;;;4.90;;
34064;SDS011;20339;49.754;20.158;2024-01-06T01:58:36;7.60;;;3.80;;
34064;SDS011;20339;49.754;20.158;2024-01-06T02:01:14;9.50;;;4.30;;
34064;SDS011;20339;49.754;20.158;2024-01-06T02:03:47;8.20;;;3.90;;
34064;SDS011;20339;49.754;20.158;2024-01-06T02:06:18;8.70;;;4.50;;
34064;SDS011;20339;49.754;20.158;2024-01-06T02:08:54;9.50;;;5.30;;
34064;SDS011;20339;49.754;20.158;2024-01-06T02:11:28;12.40;;;5.70;;
34064;SDS011;20339;49.754;20.158;2024-01-06T02:14:13;12.20;;;4.90;;
34064;SDS011;20339;49.754;20.158;2024-01-06T02:16:52;9.30;;;5.50;;
34064;SDS011;20339;49.754;20.158;2024-01-06T02:19:29;9.40;;;4.70;;
34064;SDS011;20339;49.754;20.158;2024-01-06T02:22:08;7.90;;;4.40;;
34064;SDS011;20339;49.754;20.158;2024-01-06T02:24:47;6.90;;;3.90;;
34064;SDS011;20339;49.754;20.158;2024-01-06T02:27:20;7.80;;;4.40;;
34064;SDS011;20339;49.754;20.158;2024-01-06T02:29:54;10.10;;;3.90;;
34064;SDS011;20339;49.754;20.158;2024-01-06T02:32:38;9.20;;;4.10;;
34064;SDS011;20339;49.754;20.158;2024-01-06T02:35:09;10.20;;;5.40;;
34064;SDS011;20339;49.754;20.158;2024-01-06T02:37:45;11.40;;;5.90;;
34064;SDS011;20339;49.754;20.158;2024-01-06T02:40:20;11.40;;;6.00;;
34064;SDS011;20339;49.754;20.158;2024-01-06T02:43:00;9.80;;;5.90;;
34064;SDS011;20339;49.754;20.158;2024-01-06T02:45:35;10.40;;;6.10;;
34064;SDS011;20339;49.754;20.158;2024-01-06T02:48:11;9.80;;;4.90;;
34064;SDS011;20339;49.754;20.158;2024-01-06T02:50:48;10.60;;;5.40;;
34064;SDS011;20339;49.754;20.158;2024-01-06T02:53:39;9.60;;;4.60;;
34064;SDS011;20339;49.754;20.158;2024-01-06T02:56:13;8.60;;;5.00;;
34064;SDS011;20339;49.754;20.158;2024-01-06T02:58:44;10.10;;;4.90;;
34064;SDS011;20339;49.754;20.158;2024-01-06T03:01:18;9.80;;;4.60;;
34064;SDS011;20339;49.754;20.158;2024-01-06T03:03:53;9.70;;;4.90;;
34064;SDS011;20339;49.754;20.158;2024-01-06T03:06:25;14.30;;;5.40;;
34064;SDS011;20339;49.754;20.158;2024-01-06T03:09:01;25.30;;;8.40;;
34064;SDS011;20339;49.754;20.158;2024-01-06T03:11:35;22.60;;;8.10;;
34064;SDS011;20339;49.754;20.158;2024-01-06T03:14:13;20.40;;;6.60;;
34064;SDS011;20339;49.754;20.158;2024-01-06T03:16:46;14.40;;;6.00;;
34064;SDS011;20339;49.754;20.158;2024-01-06T03:19:21;17.20;;;6.40;;
34064;SDS011;20339;49.754;20.158;2024-01-06T03:21:56;13.60;;;6.80;;
34064;SDS011;20339;49.754;20.158;2024-01-06T03:24:28;21.90;;;7.70;;
34064;SDS011;20339;49.754;20.158;2024-01-06T03:27:01;18.50;;;6.20;;
34064;SDS011;20339;49.754;20.158;2024-01-06T03:29:33;16.40;;;6.40;;
34064;SDS011;20339;49.754;20.158;2024-01-06T03:32:10;13.00;;;5.40;;
34064;SDS011;20339;49.754;20.158;2024-01-06T03:34:43;11.40;;;5.70;;
34064;SDS011;20339;49.754;20.158;2024-01-06T03:37:20;10.20;;;5.80;;
34064;SDS011;20339;49.754;20.158;2024-01-06T03:40:01;13.40;;;5.90;;
34064;SDS011;20339;49.754;20.158;2024-01-06T03:42:36;7.40;;;4.70;;
34064;SDS011;20339;49.754;20.158;2024-01-06T03:45:22;7.80;;;4.60;;
34064;SDS011;20339;49.754;20.158;2024-01-06T03:50:32;7.90;;;4.00;;
34064;SDS011;20339;49.754;20.158;2024-01-06T03:53:07;8.60;;;4.70;;
34064;SDS011;20339;49.754;20.158;2024-01-06T03:55:40;8.60;;;5.40;;
34064;SDS011;20339;49.754;20.158;2024-01-06T03:58:16;10.70;;;5.40;;
34064;SDS011;20339;49.754;20.158;2024-01-06T04:00:55;9.60;;;5.30;;
34064;SDS011;20339;49.754;20.158;2024-01-06T04:03:31;10.00;;;4.90;;
34064;SDS011;20339;49.754;20.158;2024-01-06T04:06:06;9.00;;;4.10;;
34064;SDS011;20339;49.754;20.158;2024-01-06T04:08:39;7.80;;;4.00;;
34064;SDS011;20339;49.754;20.158;2024-01-06T04:11:12;8.10;;;4.30;;
34064;SDS011;20339;49.754;20.158;2024-01-06T04:13:47;10.40;;;5.90;;
34064;SDS011;20339;49.754;20.158;2024-01-06T04:16:20;8.30;;;4.70;;
34064;SDS011;20339;49.754;20.158;2024-01-06T04:18:56;8.30;;;5.10;;
34064;SDS011;20339;49.754;20.158;2024-01-06T04:21:28;9.40;;;4.30;;
34064;SDS011;20339;49.754;20.158;2024-01-06T04:24:04;9.40;;;4.90;;
34064;SDS011;20339;49.754;20.158;2024-01-06T04:26:49;9.40;;;5.40;;
34064;SDS011;20339;49.754;20.158;2024-01-06T04:29:20;11.70;;;4.90;;
34064;SDS011;20339;49.754;20.158;2024-01-06T04:31:57;8.00;;;4.00;;
34064;SDS011;20339;49.754;20.158;2024-01-06T04:34:32;7.30;;;4.00;;
34064;SDS011;20339;49.754;20.158;2024-01-06T04:37:06;8.40;;;4.80;;
34064;SDS011;20339;49.754;20.158;2024-01-06T04:39:38;8.80;;;5.30;;
34064;SDS011;20339;49.754;20.158;2024-01-06T04:42:09;8.60;;;4.70;;
34064;SDS011;20339;49.754;20.158;2024-01-06T04:44:44;10.10;;;4.50;;
34064;SDS011;20339;49.754;20.158;2024-01-06T04:47:15;8.90;;;4.60;;
34064;SDS011;20339;49.754;20.158;2024-01-06T04:49:48;5.00;;;3.50;;
34064;SDS011;20339;49.754;20.158;2024-01-06T04:52:21;7.60;;;3.90;;
34064;SDS011;20339;49.754;20.158;2024-01-06T04:54:56;9.40;;;5.30;;
34064;SDS011;20339;49.754;20.158;2024-01-06T04:57:32;11.30;;;6.30;;
34064;SDS011;20339;49.754;20.158;2024-01-06T05:00:10;9.00;;;4.60;;
34064;SDS011;20339;49.754;20.158;2024-01-06T05:05:17;7.80;;;4.30;;
34064;SDS011;20339;49.754;20.158;2024-01-06T05:07:53;10.20;;;5.30;;
34064;SDS011;20339;49.754;20.158;2024-01-06T05:10:33;15.50;;;6.90;;
34064;SDS011;20339;49.754;20.158;2024-01-06T05:13:18;26.50;;;12.90;;
34064;SDS011;20339;49.754;20.158;2024-01-06T05:15:54;32.70;;;14.90;;
34064;SDS011;20339;49.754;20.158;2024-01-06T05:18:29;19.20;;;9.90;;
34064;SDS011;20339;49.754;20.158;2024-01-06T05:21:13;18.00;;;8.60;;
34064;SDS011;20339;49.754;20.158;2024-01-06T05:24:03;13.50;;;6.10;;
34064;SDS011;20339;49.754;20.158;2024-01-06T05:26:42;10.20;;;4.50;;
34064;SDS011;20339;49.754;20.158;2024-01-06T05:29:33;9.50;;;3.70;;
34064;SDS011;20339;49.754;20.158;2024-01-06T05:32:19;5.80;;;3.20;;
34064;SDS011;20339;49.754;20.158;2024-01-06T05:34:57;17.30;;;7.50;;
34064;SDS011;20339;49.754;20.158;2024-01-06T05:37:37;20.50;;;11.40;;
34064;SDS011;20339;49.754;20.158;2024-01-06T05:43:15;16.90;;;9.10;;
34064;SDS011;20339;49.754;20.158;2024-01-06T05:45:49;17.30;;;9.10;;
34064;SDS011;20339;49.754;20.158;2024-01-06T05:48:26;18.30;;;10.40;;
34064;SDS011;20339;49.754;20.158;2024-01-06T05:51:06;18.90;;;10.60;;
34064;SDS011;20339;49.754;20.158;2024-01-06T05:53:45;14.70;;;6.70;;
34064;SDS011;20339;49.754;20.158;2024-01-06T05:56:31;12.10;;;6.50;;
34064;SDS011;20339;49.754;20.158;2024-01-06T05:59:10;10.30;;;5.00;;
34064;SDS011;20339;49.754;20.158;2024-01-06T06:01:48;9.30;;;4.40;;
34064;SDS011;20339;49.754;20.158;2024-01-06T06:04:25;13.90;;;8.00;;
34064;SDS011;20339;49.754;20.158;2024-01-06T06:07:01;17.30;;;9.90;;
34064;SDS011;20339;49.754;20.158;2024-01-06T06:09:39;11.90;;;7.00;;
34064;SDS011;20339;49.754;20.158;2024-01-06T06:12:31;22.50;;;13.50;;
34064;SDS011;20339;49.754;20.158;2024-01-06T06:17:43;16.40;;;9.80;;
34064;SDS011;20339;49.754;20.158;2024-01-06T06:20:23;15.80;;;8.50;;
34064;SDS011;20339;49.754;20.158;2024-01-06T06:23:13;11.50;;;6.20;;
34064;SDS011;20339;49.754;20.158;2024-01-06T06:28:47;8.80;;;5.20;;
34064;SDS011;20339;49.754;20.158;2024-01-06T06:31:22;9.70;;;5.00;;
34064;SDS011;20339;49.754;20.158;2024-01-06T06:34:09;10.70;;;6.60;;
34064;SDS011;20339;49.754;20.158;2024-01-06T06:36:55;8.70;;;4.60;;
34064;SDS011;20339;49.754;20.158;2024-01-06T06:39:46;7.90;;;3.70;;
34064;SDS011;20339;49.754;20.158;2024-01-06T06:42:33;4.60;;;2.30;;
34064;SDS011;20339;49.754;20.158;2024-01-06T06:45:22;6.10;;;3.30;;
34064;SDS011;20339;49.754;20.158;2024-01-06T06:48:18;6.30;;;3.20;;
34064;SDS011;20339;49.754;20.158;2024-01-06T06:51:06;5.30;;;2.90;;
34064;SDS011;20339;49.754;20.158;2024-01-06T06:53:45;8.30;;;3.20;;
34064;SDS011;20339;49.754;20.158;2024-01-06T06:56:36;7.50;;;3.70;;
34064;SDS011;20339;49.754;20.158;2024-01-06T06:59:25;6.20;;;3.50;;
34064;SDS011;20339;49.754;20.158;2024-01-06T07:02:07;21.00;;;11.80;;
34064;SDS011;20339;49.754;20.158;2024-01-06T07:04:52;17.10;;;9.90;;
34064;SDS011;20339;49.754;20.158;2024-01-06T07:10:58;19.50;;;9.90;;
34064;SDS011;20339;49.754;20.158;2024-01-06T07:13:35;12.20;;;6.00;;
34064;SDS011;20339;49.754;20.158;2024-01-06T07:16:15;6.50;;;3.50;;
34064;SDS011;20339;49.754;20.158;2024-01-06T07:19:03;8.10;;;3.00;;
34064;SDS011;20339;49.754;20.158;2024-01-06T07:21:43;7.50;;;2.90;;
34064;SDS011;20339;49.754;20.158;2024-01-06T07:24:20;8.00;;;4.20;;
34064;SDS011;20339;49.754;20.158;2024-01-06T07:27:00;8.60;;;4.30;;
34064;SDS011;20339;49.754;20.158;2024-01-06T07:29:47;7.50;;;3.70;;
34064;SDS011;20339;49.754;20.158;2024-01-06T07:32:21;7.10;;;3.40;;
34064;SDS011;20339;49.754;20.158;2024-01-06T07:37:40;45.30;;;22.40;;
34064;SDS011;20339;49.754;20.158;2024-01-06T07:40:29;41.20;;;18.90;;
34064;SDS011;20339;49.754;20.158;2024-01-06T07:43:08;29.90;;;14.60;;
34064;SDS011;20339;49.754;20.158;2024-01-06T07:45:44;21.50;;;11.60;;
34064;SDS011;20339;49.754;20.158;2024-01-06T07:48:27;15.50;;;8.50;;
34064;SDS011;20339;49.754;20.158;2024-01-06T07:51:22;22.60;;;10.60;;
34064;SDS011;20339;49.754;20.158;2024-01-06T07:54:14;23.00;;;12.20;;
34064;SDS011;20339;49.754;20.158;2024-01-06T07:56:56;26.90;;;12.40;;
34064;SDS011;20339;49.754;20.158;2024-01-06T07:59:41;18.50;;;9.30;;
34064;SDS011;20339;49.754;20.158;2024-01-06T08:02:15;11.90;;;6.00;;
34064;SDS011;20339;49.754;20.158;2024-01-06T08:05:07;10.00;;;6.10;;
34064;SDS011;20339;49.754;20.158;2024-01-06T08:07:50;7.60;;;4.00;;
34064;SDS011;20339;49.754;20.158;2024-01-06T08:10:42;6.40;;;3.20;;
34064;SDS011;20339;49.754;20.158;2024-01-06T08:13:39;6.00;;;3.20;;
34064;SDS011;20339;49.754;20.158;2024-01-06T08:16:17;7.70;;;4.00;;
34064;SDS011;20339;49.754;20.158;2024-01-06T08:18:57;8.10;;;4.20;;
34064;SDS011;20339;49.754;20.158;2024-01-06T08:21:48;8.60;;;3.90;;
34064;SDS011;20339;49.754;20.158;2024-01-06T08:24:33;15.20;;;9.20;;
34064;SDS011;20339;49.754;20.158;2024-01-06T08:27:04;14.40;;;8.60;;
34064;SDS011;20339;49.754;20.158;2024-01-06T08:29:42;11.20;;;7.50;;
34064;SDS011;20339;49.754;20.158;2024-01-06T08:32:30;13.90;;;6.70;;
34064;SDS011;20339;49.754;20.158;2024-01-06T08:35:22;12.80;;;8.10;;
34064;SDS011;20339;49.754;20.158;2024-01-06T08:38:23;10.60;;;4.90;;
34064;SDS011;20339;49.754;20.158;2024-01-06T08:41:04;7.30;;;4.10;;
34064;SDS011;20339;49.754;20.158;2024-01-06T08:43:42;9.80;;;6.30;;
34064;SDS011;20339;49.754;20.158;2024-01-06T08:46:16;11.50;;;6.90;;
34064;SDS011;20339;49.754;20.158;2024-01-06T08:48:53;10.80;;;6.80;;
34064;SDS011;20339;49.754;20.158;2024-01-06T08:51:39;9.50;;;6.40;;
34064;SDS011;20339;49.754;20.158;2024-01-06T08:56:55;10.90;;;6.60;;
34064;SDS011;20339;49.754;20.158;2024-01-06T08:59:37;12.90;;;8.10;;
34064;SDS011;20339;49.754;20.158;2024-01-06T09:02:15;13.60;;;8.60;;
34064;SDS011;20339;49.754;20.158;2024-01-06T09:04:51;14.40;;;9.60;;
34064;SDS011;20339;49.754;20.158;2024-01-06T09:07:36;15.10;;;9.50;;
34064;SDS011;20339;49.754;20.158;2024-01-06T09:10:08;15.00;;;9.10;;
34064;SDS011;20339;49.754;20.158;2024-01-06T09:12:44;12.20;;;8.90;;
34064;SDS011;20339;49.754;20.158;2024-01-06T09:15:28;14.70;;;9.60;;
34064;SDS011;20339;49.754;20.158;2024-01-06T09:18:05;17.50;;;10.10;;
34064;SDS011;20339;49.754;20.158;2024-01-06T09:20:38;12.20;;;8.80;;
34064;SDS011;20339;49.754;20.158;2024-01-06T09:23:16;11.70;;;7.40;;
34064;SDS011;20339;49.754;20.158;2024-01-06T09:25:50;10.10;;;7.20;;
34064;SDS011;20339;49.754;20.158;2024-01-06T09:28:29;12.90;;;8.80;;
34064;SDS011;20339;49.754;20.158;2024-01-06T09:31:14;16.20;;;11.50;;
34064;SDS011;20339;49.754;20.158;2024-01-06T09:33:49;13.20;;;8.50;;
34064;SDS011;20339;49.754;20.158;2024-01-06T09:36:20;13.50;;;7.50;;
34064;SDS011;20339;49.754;20.158;2024-01-06T09:39:04;13.20;;;9.30;;
34064;SDS011;20339;49.754;20.158;2024-01-06T09:41:45;13.00;;;8.90;;
34064;SDS011;20339;49.754;20.158;2024-01-06T09:44:32;13.80;;;9.40;;
34064;SDS011;20339;49.754;20.158;2024-01-06T09:47:10;11.00;;;7.60;;
34064;SDS011;20339;49.754;20.158;2024-01-06T09:49:53;13.60;;;7.50;;
34064;SDS011;20339;49.754;20.158;2024-01-06T09:52:52;13.40;;;7.80;;
34064;SDS011;20339;49.754;20.158;2024-01-06T09:55:37;12.90;;;8.30;;
34064;SDS011;20339;49.754;20.158;2024-01-06T09:58:11;14.10;;;10.00;;
34064;SDS011;20339;49.754;20.158;2024-01-06T10:01:00;13.70;;;9.80;;
34064;SDS011;20339;49.754;20.158;2024-01-06T10:03:37;15.20;;;9.00;;
34064;SDS011;20339;49.754;20.158;2024-01-06T10:06:11;13.00;;;7.80;;
34064;SDS011;20339;49.754;20.158;2024-01-06T10:08:54;12.40;;;8.80;;
34064;SDS011;20339;49.754;20.158;2024-01-06T10:11:30;13.20;;;8.20;;
34064;SDS011;20339;49.754;20.158;2024-01-06T10:14:16;13.40;;;8.80;;
34064;SDS011;20339;49.754;20.158;2024-01-06T10:16:59;13.50;;;8.70;;
34064;SDS011;20339;49.754;20.158;2024-01-06T10:19:32;15.60;;;9.30;;
34064;SDS011;20339;49.754;20.158;2024-01-06T10:22:09;13.30;;;8.80;;
34064;SDS011;20339;49.754;20.158;2024-01-06T10:24:45;13.80;;;9.00;;
34064;SDS011;20339;49.754;20.158;2024-01-06T10:27:24;14.10;;;9.30;;
34064;SDS011;20339;49.754;20.158;2024-01-06T10:30:08;14.00;;;8.60;;
34064;SDS011;20339;49.754;20.158;2024-01-06T10:32:52;12.00;;;8.20;;
34064;SDS011;20339;49.754;20.158;2024-01-06T10:35:29;14.60;;;9.10;;
34064;SDS011;20339;49.754;20.158;2024-01-06T10:38:04;18.30;;;11.20;;
34064;SDS011;20339;49.754;20.158;2024-01-06T10:43:37;16.40;;;10.50;;
34064;SDS011;20339;49.754;20.158;2024-01-06T10:46:15;13.50;;;10.10;;
34064;SDS011;20339;49.754;20.158;2024-01-06T10:48:57;14.40;;;9.20;;
34064;SDS011;20339;49.754;20.158;2024-01-06T10:51:29;23.90;;;17.40;;
34064;SDS011;20339;49.754;20.158;2024-01-06T10:54:06;19.30;;;12.30;;
34064;SDS011;20339;49.754;20.158;2024-01-06T10:56:44;19.40;;;12.60;;
34064;SDS011;20339;49.754;20.158;2024-01-06T10:59:27;32.10;;;24.60;;
34064;SDS011;20339;49.754;20.158;2024-01-06T11:02:19;31.30;;;23.50;;
34064;SDS011;20339;49.754;20.158;2024-01-06T11:04:52;36.70;;;27.40;;
34064;SDS011;20339;49.754;20.158;2024-01-06T11:07:31;37.60;;;27.90;;
34064;SDS011;20339;49.754;20.158;2024-01-06T11:10:11;35.60;;;27.10;;
34064;SDS011;20339;49.754;20.158;2024-01-06T11:12:45;42.20;;;30.50;;
34064;SDS011;20339;49.754;20.158;2024-01-06T11:15:45;41.60;;;30.20;;
34064;SDS011;20339;49.754;20.158;2024-01-06T11:18:34;40.80;;;29.80;;
34064;SDS011;20339;49.754;20.158;2024-01-06T11:21:17;41.90;;;31.20;;
34064;SDS011;20339;49.754;20.158;2024-01-06T11:24:18;42.70;;;30.00;;
34064;SDS011;20339;49.754;20.158;2024-01-06T11:26:58;39.70;;;29.70;;
34064;SDS011;20339;49.754;20.158;2024-01-06T11:29:32;41.60;;;29.20;;
34064;SDS011;20339;49.754;20.158;2024-01-06T11:32:18;36.70;;;28.20;;
34064;SDS011;20339;49.754;20.158;2024-01-06T11:35:17;42.20;;;30.30;;
34064;SDS011;20339;49.754;20.158;2024-01-06T11:37:53;45.40;;;32.60;;
34064;SDS011;20339;49.754;20.158;2024-01-06T11:40:37;41.90;;;29.40;;
34064;SDS011;20339;49.754;20.158;2024-01-06T11:43:14;35.70;;;27.40;;
34064;SDS011;20339;49.754;20.158;2024-01-06T11:45:51;41.80;;;28.40;;
34064;SDS011;20339;49.754;20.158;2024-01-06T11:48:28;44.70;;;31.60;;
34064;SDS011;20339;49.754;20.158;2024-01-06T11:51:22;46.50;;;31.40;;
34064;SDS011;20339;49.754;20.158;2024-01-06T11:53:58;41.30;;;29.30;;
34064;SDS011;20339;49.754;20.158;2024-01-06T11:59:41;39.50;;;28.20;;
34064;SDS011;20339;49.754;20.158;2024-01-06T12:02:17;38.30;;;26.30;;
34064;SDS011;20339;49.754;20.158;2024-01-06T12:05:02;36.10;;;25.10;;
34064;SDS011;20339;49.754;20.158;2024-01-06T12:07:39;39.60;;;27.50;;
34064;SDS011;20339;49.754;20.158;2024-01-06T12:10:14;37.60;;;27.20;;
34064;SDS011;20339;49.754;20.158;2024-01-06T12:12:58;40.30;;;27.90;;
34064;SDS011;20339;49.754;20.158;2024-01-06T12:15:45;40.20;;;28.80;;
34064;SDS011;20339;49.754;20.158;2024-01-06T12:18:21;40.10;;;26.50;;
34064;SDS011;20339;49.754;20.158;2024-01-06T12:20:56;40.50;;;26.10;;
34064;SDS011;20339;49.754;20.158;2024-01-06T12:23:29;45.60;;;30.50;;
34064;SDS011;20339;49.754;20.158;2024-01-06T12:26:02;39.40;;;27.00;;
34064;SDS011;20339;49.754;20.158;2024-01-06T12:28:40;31.40;;;23.30;;
34064;SDS011;20339;49.754;20.158;2024-01-06T12:31:16;32.90;;;22.30;;
34064;SDS011;20339;49.754;20.158;2024-01-06T12:33:53;33.80;;;22.70;;
34064;SDS011;20339;49.754;20.158;2024-01-06T12:36:30;39.60;;;23.40;;
34064;SDS011;20339;49.754;20.158;2024-01-06T12:39:10;32.10;;;22.60;;
34064;SDS011;20339;49.754;20.158;2024-01-06T12:41:48;34.20;;;21.80;;
34064;SDS011;20339;49.754;20.158;2024-01-06T12:44:25;26.50;;;17.50;;
34064;SDS011;20339;49.754;20.158;2024-01-06T12:47:05;28.30;;;17.90;;
34064;SDS011;20339;49.754;20.158;2024-01-06T12:49:40;28.70;;;20.10;;
34064;SDS011;20339;49.754;20.158;2024-01-06T12:52:14;39.10;;;23.30;;
34064;SDS011;20339;49.754;20.158;2024-01-06T12:54:45;28.00;;;20.20;;
34064;SDS011;20339;49.754;20.158;2024-01-06T12:57:22;26.90;;;18.60;;
34064;SDS011;20339;49.754;20.158;2024-01-06T13:00:04;27.60;;;19.20;;
34064;SDS011;20339;49.754;20.158;2024-01-06T13:02:42;25.60;;;17.70;;
34064;SDS011;20339;49.754;20.158;2024-01-06T13:05:15;28.50;;;18.90;;
34064;SDS011;20339;49.754;20.158;2024-01-06T13:07:48;25.80;;;18.10;;
34064;SDS011;20339;49.754;20.158;2024-01-06T13:10:27;27.00;;;18.70;;
34064;SDS011;20339;49.754;20.158;2024-01-06T13:13:06;27.90;;;19.30;;
34064;SDS011;20339;49.754;20.158;2024-01-06T13:15:40;25.80;;;17.20;;
34064;SDS011;20339;49.754;20.158;2024-01-06T13:18:18;26.10;;;17.90;;
34064;SDS011;20339;49.754;20.158;2024-01-06T13:21:02;27.80;;;17.80;;
34064;SDS011;20339;49.754;20.158;2024-01-06T13:23:44;28.70;;;18.40;;
34064;SDS011;20339;49.754;20.158;2024-01-06T13:26:22;24.70;;;17.00;;
34064;SDS011;20339;49.754;20.158;2024-01-06T13:28:57;28.50;;;18.10;;
34064;SDS011;20339;49.754;20.158;2024-01-06T13:31:31;29.30;;;18.30;;
34064;SDS011;20339;49.754;20.158;2024-01-06T13:34:11;25.60;;;17.50;;
34064;SDS011;20339;49.754;20.158;2024-01-06T13:36:44;25.20;;;16.70;;
34064;SDS011;20339;49.754;20.158;2024-01-06T13:39:21;23.50;;;15.10;;
34064;SDS011;20339;49.754;20.158;2024-01-06T13:41:53;25.50;;;17.30;;
34064;SDS011;20339;49.754;20.158;2024-01-06T13:44:29;26.40;;;18.30;;
34064;SDS011;20339;49.754;20.158;2024-01-06T13:47:09;26.50;;;16.70;;
34064;SDS011;20339;49.754;20.158;2024-01-06T13:49:45;21.60;;;15.20;;
34064;SDS011;20339;49.754;20.158;2024-01-06T13:52:29;24.30;;;15.90;;
34064;SDS011;20339;49.754;20.158;2024-01-06T13:55:09;21.90;;;14.50;;
34064;SDS011;20339;49.754;20.158;2024-01-06T14:00:16;25.20;;;14.60;;
34064;SDS011;20339;49.754;20.158;2024-01-06T14:02:49;21.00;;;12.90;;
34064;SDS011;20339;49.754;20.158;2024-01-06T14:05:28;21.70;;;14.10;;
34064;SDS011;20339;49.754;20.158;2024-01-06T14:08:15;21.10;;;13.60;;
34064;SDS011;20339;49.754;20.158;2024-01-06T14:16:29;47.10;;;24.60;;
34064;SDS011;20339;49.754;20.158;2024-01-06T14:19:03;24.70;;;16.20;;
34064;SDS011;20339;49.754;20.158;2024-01-06T14:21:39;22.50;;;13.40;;
34064;SDS011;20339;49.754;20.158;2024-01-06T14:24:27;29.10;;;19.60;;
34064;SDS011;20339;49.754;20.158;2024-01-06T14:27:03;24.20;;;16.60;;
34064;SDS011;20339;49.754;20.158;2024-01-06T14:29:40;23.50;;;15.10;;
34064;SDS011;20339;49.754;20.158;2024-01-06T14:32:20;23.60;;;15.00;;
34064;SDS011;20339;49.754;20.158;2024-01-06T14:35:09;26.30;;;17.10;;
34064;SDS011;20339;49.754;20.158;2024-01-06T14:37:43;26.80;;;14.80;;
34064;SDS011;20339;49.754;20.158;2024-01-06T14:40:21;25.20;;;17.40;;
34064;SDS011;20339;49.754;20.158;2024-01-06T14:43:12;25.80;;;16.60;;
34064;SDS011;20339;49.754;20.158;2024-01-06T14:45:45;25.40;;;16.70;;
34064;SDS011;20339;49.754;20.158;2024-01-06T14:48:26;25.90;;;16.80;;
34064;SDS011;20339;49.754;20.158;2024-01-06T14:51:08;27.80;;;17.30;;
34064;SDS011;20339;49.754;20.158;2024-01-06T14:53:41;36.40;;;18.80;;
34064;SDS011;20339;49.754;20.158;2024-01-06T14:56:18;32.30;;;19.10;;
34064;SDS011;20339;49.754;20.158;2024-01-06T14:58:55;31.20;;;19.50;;
34064;SDS011;20339;49.754;20.158;2024-01-06T15:01:44;33.80;;;20.70;;
34064;SDS011;20339;49.754;20.158;2024-01-06T15:10:25;31.10;;;19.20;;
34064;SDS011;20339;49.754;20.158;2024-01-06T15:13:07;36.80;;;18.30;;
34064;SDS011;20339;49.754;20.158;2024-01-06T15:15:47;62.40;;;24.80;;
34064;SDS011;20339;49.754;20.158;2024-01-06T15:18:21;28.10;;;17.30;;
34064;SDS011;20339;49.754;20.158;2024-01-06T15:20:56;25.70;;;17.60;;
34064;SDS011;20339;49.754;20.158;2024-01-06T15:23:31;30.80;;;19.40;;
34064;SDS011;20339;49.754;20.158;2024-01-06T15:26:12;27.70;;;18.00;;
34064;SDS011;20339;49.754;20.158;2024-01-06T15:29:07;38.10;;;21.90;;
34064;SDS011;20339;49.754;20.158;2024-01-06T15:31:49;41.80;;;23.50;;
34064;SDS011;20339;49.754;20.158;2024-01-06T15:34:30;41.50;;;24.30;;
34064;SDS011;20339;49.754;20.158;2024-01-06T15:37:07;40.80;;;21.90;;
34064;SDS011;20339;49.754;20.158;2024-01-06T15:39:44;39.10;;;21.20;;
34064;SDS011;20339;49.754;20.158;2024-01-06T15:42:19;39.10;;;22.00;;
34064;SDS011;20339;49.754;20.158;2024-01-06T15:44:54;36.90;;;20.00;;
34064;SDS011;20339;49.754;20.158;2024-01-06T15:47:35;34.60;;;20.50;;
34064;SDS011;20339;49.754;20.158;2024-01-06T15:50:13;32.60;;;19.90;;
34064;SDS011;20339;49.754;20.158;2024-01-06T15:52:52;35.30;;;20.50;;
34064;SDS011;20339;49.754;20.158;2024-01-06T15:55:39;31.40;;;19.40;;
34064;SDS011;20339;49.754;20.158;2024-01-06T15:58:16;26.50;;;17.70;;
34064;SDS011;20339;49.754;20.158;2024-01-06T16:00:52;23.20;;;14.80;;
34064;SDS011;20339;49.754;20.158;2024-01-06T16:03:24;21.50;;;14.90;;
34064;SDS011;20339;49.754;20.158;2024-01-06T16:05:59;27.10;;;16.70;;